Brilliant Moira — V7CX7 — position and weather

sailwx.info

Track history (hours):
 
Tides and Currents Weather Stations Pressure Air Temp Water Temp Dewpoint Dewpoint Depression Visibility Wind Speed Wind Dir Waves Ship Positions

Brilliant Moira

Last reported at 2018-Aug-03 06:04 UTC. Time now 2018-Aug-19 15:21 UTC.
Position S 34°46' E 019°12'.
Warning: this ship's position is 16 days out of date.

Length 169 m; draft 5.4 m.

Type: Cargo ship. MMSI: 538005346.

Date/timePositionNaut miles runAvg speedWind from/ knotsBaromVisibWave heightAir tempDewpointWater temp
2018-Aug-03 06:04S 34°46' E 019°12'110.1
2018-Aug-03 06:01S 34°46' E 019°11'610.2
2018-Aug-03 05:23S 34°43' E 019°04'410.6
2018-Aug-03 04:59S 34°42' E 018°59'510.5
2018-Aug-03 04:30S 34°40' E 018°54'710.5
2018-Aug-03 03:47S 34°37' E 018°45'310.5
2018-Aug-03 03:28S 34°36' E 018°41'510.4
2018-Aug-03 03:00S 34°34' E 018°36'610.3
2018-Aug-03 02:28S 34°32' E 018°30'5 9.9
2018-Aug-03 01:59S 34°30' E 018°24'5 9.9
2018-Aug-03 01:30S 34°29' E 018°19'610.1
2018-Aug-03 00:57S 34°27' E 018°12'5 9.9
2018-Aug-03 00:29S 34°26' E 018°07'7 9.9
2018-Aug-02 23:49S 34°24' E 017°60'4 9.7
2018-Aug-02 23:27S 34°23' E 017°55'4 9.7
2018-Aug-02 23:00S 34°21' E 017°50'5 9.5
2018-Aug-02 22:30S 34°20' E 017°45'5 9.5
2018-Aug-02 22:00S 34°18' E 017°39'5 9.7
2018-Aug-02 21:30S 34°17' E 017°34'5 9.8
2018-Aug-02 21:01S 34°15' E 017°28'  
Track history (hours):
 
Tides and Currents Weather Stations Pressure Air Temp Water Temp Dewpoint Dewpoint Depression Visibility Wind Speed Wind Dir Waves Ship Positions

Brilliant Moira

Last reported at 2018-Aug-03 06:04 UTC. Time now 2018-Aug-19 15:21 UTC.
Position S 34°46' E 019°12'.
Warning: this ship's position is 16 days out of date.

Length 169 m; draft 5.4 m.

Type: Cargo ship. MMSI: 538005346.

Date/timePositionNaut miles runAvg speedWind from/ knotsBaromVisibWave heightAir tempDewpointWater temp
2018-Aug-03 06:04S 34°46' E 019°12'110.1
2018-Aug-03 06:01S 34°46' E 019°11'610.2
2018-Aug-03 05:23S 34°43' E 019°04'410.6
2018-Aug-03 04:59S 34°42' E 018°59'510.5
2018-Aug-03 04:30S 34°40' E 018°54'710.5
2018-Aug-03 03:47S 34°37' E 018°45'310.5
2018-Aug-03 03:28S 34°36' E 018°41'510.4
2018-Aug-03 03:00S 34°34' E 018°36'610.3
2018-Aug-03 02:28S 34°32' E 018°30'5 9.9
2018-Aug-03 01:59S 34°30' E 018°24'5 9.9
2018-Aug-03 01:30S 34°29' E 018°19'610.1
2018-Aug-03 00:57S 34°27' E 018°12'5 9.9
2018-Aug-03 00:29S 34°26' E 018°07'7 9.9
2018-Aug-02 23:49S 34°24' E 017°60'4 9.7
2018-Aug-02 23:27S 34°23' E 017°55'4 9.7
2018-Aug-02 23:00S 34°21' E 017°50'5 9.5
2018-Aug-02 22:30S 34°20' E 017°45'5 9.5
2018-Aug-02 22:00S 34°18' E 017°39'5 9.7
2018-Aug-02 21:30S 34°17' E 017°34'5 9.8
2018-Aug-02 21:01S 34°15' E 017°28'  

Dump ship's entire track history